createdAt,value
2023-01-10T00:01:15.034Z,95.12
2023-01-10T00:06:08.342Z,94.99
2023-01-10T00:11:22.006Z,94.87
2023-01-10T00:16:14.871Z,94.76
2023-01-10T00:21:09.615Z,94.78
2023-01-10T00:26:02.428Z,94.72
2023-01-10T00:31:01.291Z,94.68
2023-01-10T00:35:54.375Z,94.56
2023-01-10T00:40:47.967Z,94.56
2023-01-10T00:45:40.774Z,94.64
2023-01-10T00:50:33.561Z,94.54
2023-01-10T00:55:26.365Z,94.58
2023-01-10T01:00:19.319Z,94.61
2023-01-10T01:05:12.264Z,94.59
2023-01-10T01:10:22.765Z,94.54
2023-01-10T01:15:15.692Z,94.68
2023-01-10T01:20:09.412Z,94.55
2023-01-10T01:25:02.305Z,94.63
2023-01-10T01:29:55.350Z,94.54
2023-01-10T01:34:48.194Z,94.47
2023-01-10T01:39:41.012Z,94.49
2023-01-10T01:44:37.823Z,94.48
2023-01-10T01:49:33.560Z,94.43
2023-01-10T01:54:27.820Z,94.49
2023-01-10T01:59:25.485Z,94.51
2023-01-10T02:04:25.527Z,94.68
2023-01-10T02:09:27.341Z,94.60
2023-01-10T02:14:21.897Z,94.55
2023-01-10T02:19:26.432Z,94.40
2023-01-10T02:24:38.824Z,94.59
2023-01-10T02:30:08.257Z,94.51
2023-01-10T02:35:28.720Z,94.54
2023-01-10T02:40:52.128Z,94.49
2023-01-10T02:45:51.939Z,94.56
2023-01-10T02:50:44.758Z,94.53
2023-01-10T02:56:17.194Z,94.47
2023-01-10T03:01:48.219Z,94.53
2023-01-10T03:07:01.368Z,94.50
2023-01-10T03:12:03.278Z,94.57
2023-01-10T03:17:02.413Z,94.47
2023-01-10T03:22:01.590Z,94.59
2023-01-10T03:27:10.847Z,94.51
2023-01-10T03:32:08.369Z,94.57
2023-01-10T03:37:04.442Z,94.63
2023-01-10T03:42:09.130Z,94.68
2023-01-10T03:47:19.991Z,94.64
2023-01-10T03:52:17.062Z,94.67
2023-01-10T03:57:09.907Z,94.56
2023-01-10T04:02:02.830Z,94.56
2023-01-10T04:06:55.748Z,94.55
2023-01-10T04:11:48.649Z,94.55
2023-01-10T04:16:41.525Z,94.51
2023-01-10T04:21:34.360Z,94.57
2023-01-10T04:26:27.193Z,94.47
2023-01-10T04:31:20.295Z,94.51
2023-01-10T04:36:13.350Z,94.60
2023-01-10T04:41:06.433Z,94.57
2023-01-10T04:45:59.680Z,94.42
2023-01-10T04:50:54.413Z,94.37
2023-01-10T04:55:47.824Z,94.46
2023-01-10T05:00:40.943Z,94.42
2023-01-10T05:05:33.858Z,94.36
2023-01-10T05:10:27.168Z,94.44
2023-01-10T05:15:21.200Z,94.41
2023-01-10T05:20:14.626Z,94.44
2023-01-10T05:25:07.824Z,94.49
2023-01-10T05:30:00.642Z,94.42
2023-01-10T05:34:54.350Z,94.31
2023-01-10T05:39:47.153Z,94.35
2023-01-10T05:44:40.531Z,94.36
2023-01-10T05:49:34.301Z,94.40
2023-01-10T05:54:27.418Z,94.32
2023-01-10T05:59:27.989Z,94.50
2023-01-10T06:04:21.392Z,94.35
2023-01-10T06:09:14.231Z,94.38
2023-01-10T06:14:07.919Z,94.40
2023-01-10T06:19:00.744Z,94.47
2023-01-10T06:23:53.613Z,94.40
2023-01-10T06:28:46.481Z,94.41
2023-01-10T06:33:41.541Z,94.32
2023-01-10T06:38:34.510Z,94.21
2023-01-10T06:43:27.428Z,94.32
2023-01-10T06:48:20.232Z,94.18
2023-01-10T06:53:13.081Z,94.22
2023-01-10T06:58:06.155Z,94.28
2023-01-10T07:03:02.203Z,94.28
2023-01-10T07:07:55.012Z,94.04
2023-01-10T07:12:47.843Z,94.18
2023-01-10T07:17:41.092Z,94.05
2023-01-10T07:22:33.979Z,94.13
2023-01-10T07:27:26.830Z,94.06
2023-01-10T07:32:19.682Z,93.90
2023-01-10T07:37:12.549Z,93.91
2023-01-10T07:42:05.615Z,93.86
2023-01-10T07:46:58.508Z,93.91
2023-01-10T07:51:51.400Z,93.78
2023-01-10T07:56:44.475Z,93.79
2023-01-10T08:01:38.009Z,93.73
2023-01-10T08:06:30.878Z,93.58
2023-01-10T08:11:23.865Z,93.63
2023-01-10T08:16:16.772Z,93.61
2023-01-10T08:21:10.244Z,93.59
2023-01-10T08:26:05.935Z,93.55
2023-01-10T08:30:58.870Z,93.36
2023-01-10T08:35:52.604Z,93.49
2023-01-10T08:40:45.887Z,93.41
2023-01-10T08:45:40.206Z,93.15
2023-01-10T08:50:33.165Z,92.99
2023-01-10T08:55:27.599Z,93.02
2023-01-10T09:00:21.321Z,92.86
2023-01-10T09:05:26.230Z,92.99
2023-01-10T09:10:21.556Z,92.89
2023-01-10T09:15:14.961Z,92.93
2023-01-10T09:20:10.344Z,92.66
2023-01-10T09:25:03.664Z,92.66
2023-01-10T09:29:56.530Z,92.36
2023-01-10T09:34:49.409Z,92.47
2023-01-10T09:39:42.307Z,92.32
2023-01-10T09:44:50.129Z,92.29
2023-01-10T09:49:42.909Z,92.19
2023-01-10T09:54:43.506Z,92.14
2023-01-10T09:59:43.132Z,92.05
2023-01-10T10:04:38.392Z,91.90
2023-01-10T10:09:34.458Z,91.82
2023-01-10T10:15:06.692Z,91.94
2023-01-10T10:20:04.363Z,92.11
2023-01-10T10:25:12.249Z,92.18
2023-01-10T10:30:21.273Z,92.03
2023-01-10T10:35:20.130Z,92.15
2023-01-10T10:40:15.851Z,92.22
2023-01-10T10:45:30.211Z,92.14
2023-01-10T10:50:33.731Z,91.86
2023-01-10T10:55:34.497Z,91.99
2023-01-10T11:00:28.323Z,91.99
2023-01-10T11:05:30.701Z,91.92
2023-01-10T11:10:39.271Z,91.78
2023-01-10T11:15:47.483Z,91.85
2023-01-10T11:20:53.329Z,92.06
2023-01-10T11:25:50.100Z,92.13
2023-01-10T11:30:49.643Z,92.22
2023-01-10T11:36:01.820Z,92.03
2023-01-10T11:41:23.385Z,92.13
2023-01-10T11:46:23.240Z,91.95
2023-01-10T11:51:31.529Z,91.87
2023-01-10T11:56:28.366Z,91.91
2023-01-10T12:01:38.988Z,91.76
2023-01-10T12:06:32.229Z,91.78
2023-01-10T12:11:42.760Z,91.87
2023-01-10T12:16:41.438Z,91.95
2023-01-10T12:21:42.115Z,92.02
2023-01-10T12:26:36.143Z,91.86
2023-01-10T12:31:33.563Z,92.08
2023-01-10T12:36:41.076Z,92.13
2023-01-10T12:42:01.718Z,91.78
2023-01-10T12:47:07.312Z,91.85
2023-01-10T12:52:12.207Z,91.62
2023-01-10T12:57:17.879Z,91.80
2023-01-10T13:02:22.527Z,91.72
2023-01-10T13:07:17.907Z,91.73
2023-01-10T13:12:36.147Z,91.64
2023-01-10T13:17:35.005Z,91.60
2023-01-10T13:22:28.439Z,91.56
2023-01-10T13:27:22.449Z,91.68
2023-01-10T13:32:25.535Z,91.58
2023-01-10T13:37:30.918Z,91.60
2023-01-10T13:42:51.712Z,91.75
2023-01-10T13:47:44.602Z,91.66
2023-01-10T13:52:37.571Z,91.59
2023-01-10T13:57:50.849Z,91.62
2023-01-10T14:02:46.899Z,91.67
2023-01-10T14:07:51.218Z,91.56
2023-01-10T14:12:55.492Z,91.68
2023-01-10T14:18:00.239Z,91.58
2023-01-10T14:23:01.163Z,91.64
2023-01-10T14:27:56.388Z,91.62
2023-01-10T14:32:52.625Z,91.56
2023-01-10T14:37:53.273Z,91.48
2023-01-10T14:42:49.585Z,91.63
2023-01-10T14:47:42.769Z,91.60
2023-01-10T14:52:35.771Z,91.48
2023-01-10T14:57:29.432Z,91.53
2023-01-10T15:02:24.356Z,91.52
2023-01-10T15:07:17.605Z,91.42
2023-01-10T15:12:15.035Z,91.39
2023-01-10T15:17:13.210Z,91.35
2023-01-10T15:22:19.515Z,91.25
2023-01-10T15:27:16.727Z,91.14
2023-01-10T15:32:22.065Z,91.12
2023-01-10T15:37:23.533Z,91.21
2023-01-10T15:42:16.943Z,91.07
2023-01-10T15:47:36.937Z,91.02
2023-01-10T15:52:29.847Z,91.04
2023-01-10T15:57:27.496Z,90.90
2023-01-10T16:02:25.146Z,90.96
2023-01-10T16:07:26.813Z,90.96
2023-01-10T16:12:47.487Z,90.89
2023-01-10T16:17:40.913Z,90.80
2023-01-10T16:22:35.389Z,90.52
2023-01-10T16:27:29.696Z,90.51
2023-01-10T16:32:22.558Z,90.03
2023-01-10T16:37:15.449Z,90.09
2023-01-10T16:42:25.901Z,90.11
2023-01-10T16:47:18.708Z,89.89
2023-01-10T16:52:14.955Z,89.93
2023-01-10T16:57:07.762Z,89.86
2023-01-10T17:02:00.812Z,89.68
2023-01-10T17:06:53.906Z,89.57
2023-01-10T17:11:46.710Z,89.49
2023-01-10T17:16:39.639Z,89.41
2023-01-10T17:21:32.538Z,89.25
2023-01-10T17:26:25.431Z,89.06
2023-01-10T17:31:19.837Z,89.13
2023-01-10T17:36:12.966Z,89.06
2023-01-10T17:41:07.476Z,88.95
2023-01-10T17:46:00.714Z,89.06
2023-01-10T17:50:58.940Z,89.07
2023-01-10T17:55:52.519Z,89.16
2023-01-10T18:00:46.423Z,89.06
2023-01-10T18:05:40.059Z,89.06
2023-01-10T18:10:33.554Z,89.04
2023-01-10T18:15:28.671Z,89.15
2023-01-10T18:20:21.536Z,89.07
2023-01-10T18:25:15.666Z,88.98
2023-01-10T18:30:09.285Z,89.24
2023-01-10T18:35:02.237Z,89.04
2023-01-10T18:39:55.050Z,89.00
2023-01-10T18:44:47.867Z,89.08
2023-01-10T18:49:40.699Z,89.01
2023-01-10T18:54:33.495Z,88.91
2023-01-10T18:59:26.301Z,89.00
2023-01-10T19:04:19.717Z,88.91
2023-01-10T19:09:12.563Z,89.16
2023-01-10T19:14:05.488Z,89.21
2023-01-10T19:19:01.023Z,89.18
2023-01-10T19:23:56.620Z,89.35
2023-01-10T19:28:49.541Z,89.36
2023-01-10T19:33:44.135Z,89.40
2023-01-10T19:38:37.068Z,89.48
2023-01-10T19:43:30.610Z,89.33
2023-01-10T19:48:25.291Z,89.42
2023-01-10T19:53:23.888Z,89.35
2023-01-10T19:58:16.797Z,89.17
2023-01-10T20:03:09.648Z,89.18
2023-01-10T20:08:03.534Z,88.98
2023-01-10T20:12:56.445Z,89.14
2023-01-10T20:17:49.386Z,89.06
2023-01-10T20:22:42.299Z,89.12
2023-01-10T20:27:36.365Z,88.94
2023-01-10T20:32:31.461Z,88.97
2023-01-10T20:37:25.339Z,88.98
2023-01-10T20:42:18.208Z,88.85
2023-01-10T20:47:11.061Z,88.66
2023-01-10T20:52:04.314Z,88.61
2023-01-10T20:56:57.215Z,88.87
2023-01-10T21:01:50.222Z,88.34
2023-01-10T21:06:43.138Z,88.42
2023-01-10T21:11:47.727Z,88.82
2023-01-10T21:16:45.347Z,88.74
2023-01-10T21:21:40.672Z,88.64
2023-01-10T21:26:33.784Z,88.49
2023-01-10T21:31:26.758Z,88.84
2023-01-10T21:36:19.694Z,89.27
2023-01-10T21:41:39.440Z,89.41
2023-01-10T21:46:32.747Z,89.42
2023-01-10T21:51:25.631Z,89.26
2023-01-10T21:56:18.503Z,89.23
2023-01-10T22:01:11.419Z,89.00
2023-01-10T22:06:04.490Z,89.26
2023-01-10T22:10:57.274Z,89.25
2023-01-10T22:15:50.879Z,88.99
2023-01-10T22:20:47.737Z,88.91
2023-01-10T22:25:40.739Z,88.84
2023-01-10T22:30:33.539Z,89.05
2023-01-10T22:35:27.298Z,89.12
2023-01-10T22:40:20.331Z,89.32
2023-01-10T22:45:13.158Z,89.36
2023-01-10T22:50:06.374Z,89.22
2023-01-10T22:55:01.456Z,89.45
2023-01-10T22:59:54.408Z,89.08
2023-01-10T23:04:47.180Z,89.17
2023-01-10T23:09:39.964Z,89.48
2023-01-10T23:14:33.868Z,89.39
2023-01-10T23:19:26.730Z,89.34
2023-01-10T23:24:21.667Z,89.60
2023-01-10T23:29:14.485Z,89.77
2023-01-10T23:34:07.251Z,90.09
2023-01-10T23:39:00.598Z,90.12
2023-01-10T23:43:53.775Z,89.97
2023-01-10T23:48:48.426Z,89.87
2023-01-10T23:53:41.986Z,89.67
2023-01-10T23:58:34.707Z,89.86
